sensor_id;sensor_type;location;lat;lon;timestamp;P1;durP1;ratioP1;P2;durP2;ratioP2
8094;SDS011;4090;49.270;8.696;2024-03-02T00:01:27;16.27;;;8.38;;
8094;SDS011;4090;49.270;8.696;2024-03-02T00:04:08;22.77;;;8.95;;
8094;SDS011;4090;49.270;8.696;2024-03-02T00:06:51;15.60;;;8.35;;
8094;SDS011;4090;49.270;8.696;2024-03-02T00:09:34;18.83;;;9.77;;
8094;SDS011;4090;49.270;8.696;2024-03-02T00:12:16;17.77;;;9.32;;
8094;SDS011;4090;49.270;8.696;2024-03-02T00:14:59;17.00;;;9.20;;
8094;SDS011;4090;49.270;8.696;2024-03-02T00:17:44;16.65;;;9.68;;
8094;SDS011;4090;49.270;8.696;2024-03-02T00:20:26;14.80;;;8.50;;
8094;SDS011;4090;49.270;8.696;2024-03-02T00:23:09;16.08;;;8.68;;
8094;SDS011;4090;49.270;8.696;2024-03-02T00:25:52;17.75;;;9.05;;
8094;SDS011;4090;49.270;8.696;2024-03-02T00:28:35;18.67;;;9.07;;
8094;SDS011;4090;49.270;8.696;2024-03-02T00:31:19;17.70;;;9.80;;
8094;SDS011;4090;49.270;8.696;2024-03-02T00:34:03;17.15;;;9.25;;
8094;SDS011;4090;49.270;8.696;2024-03-02T00:36:47;19.98;;;9.05;;
8094;SDS011;4090;49.270;8.696;2024-03-02T00:39:32;17.00;;;8.57;;
8094;SDS011;4090;49.270;8.696;2024-03-02T00:42:13;17.33;;;9.10;;
8094;SDS011;4090;49.270;8.696;2024-03-02T00:44:55;17.20;;;9.38;;
8094;SDS011;4090;49.270;8.696;2024-03-02T00:47:37;20.27;;;9.25;;
8094;SDS011;4090;49.270;8.696;2024-03-02T00:50:21;16.38;;;9.57;;
8094;SDS011;4090;49.270;8.696;2024-03-02T00:53:03;17.52;;;8.93;;
8094;SDS011;4090;49.270;8.696;2024-03-02T00:55:45;17.05;;;9.68;;
8094;SDS011;4090;49.270;8.696;2024-03-02T00:58:28;17.33;;;9.32;;
8094;SDS011;4090;49.270;8.696;2024-03-02T01:01:10;17.83;;;9.52;;
8094;SDS011;4090;49.270;8.696;2024-03-02T01:03:52;16.15;;;9.23;;
8094;SDS011;4090;49.270;8.696;2024-03-02T01:06:36;21.70;;;9.68;;
8094;SDS011;4090;49.270;8.696;2024-03-02T01:09:18;17.58;;;10.07;;
8094;SDS011;4090;49.270;8.696;2024-03-02T01:12:00;17.45;;;8.95;;
8094;SDS011;4090;49.270;8.696;2024-03-02T01:14:42;16.98;;;9.05;;
8094;SDS011;4090;49.270;8.696;2024-03-02T01:17:24;17.02;;;8.95;;
8094;SDS011;4090;49.270;8.696;2024-03-02T01:20:07;18.85;;;8.90;;
8094;SDS011;4090;49.270;8.696;2024-03-02T01:22:51;14.45;;;8.85;;
8094;SDS011;4090;49.270;8.696;2024-03-02T01:25:33;15.20;;;8.70;;
8094;SDS011;4090;49.270;8.696;2024-03-02T01:28:16;17.17;;;8.70;;
8094;SDS011;4090;49.270;8.696;2024-03-02T01:30:57;16.88;;;8.88;;
8094;SDS011;4090;49.270;8.696;2024-03-02T01:33:39;18.58;;;9.27;;
8094;SDS011;4090;49.270;8.696;2024-03-02T01:36:21;15.68;;;8.77;;
8094;SDS011;4090;49.270;8.696;2024-03-02T01:39:05;19.52;;;11.10;;
8094;SDS011;4090;49.270;8.696;2024-03-02T01:41:49;16.60;;;9.73;;
8094;SDS011;4090;49.270;8.696;2024-03-02T01:44:31;19.73;;;9.75;;
8094;SDS011;4090;49.270;8.696;2024-03-02T01:47:13;20.38;;;9.45;;
8094;SDS011;4090;49.270;8.696;2024-03-02T01:49:54;16.52;;;9.02;;
8094;SDS011;4090;49.270;8.696;2024-03-02T01:52:36;18.60;;;9.45;;
8094;SDS011;4090;49.270;8.696;2024-03-02T01:55:20;17.20;;;9.05;;
8094;SDS011;4090;49.270;8.696;2024-03-02T01:58:02;17.25;;;9.25;;
8094;SDS011;4090;49.270;8.696;2024-03-02T02:00:44;14.13;;;8.38;;
8094;SDS011;4090;49.270;8.696;2024-03-02T02:03:26;19.75;;;9.25;;
8094;SDS011;4090;49.270;8.696;2024-03-02T02:06:08;18.55;;;9.20;;
8094;SDS011;4090;49.270;8.696;2024-03-02T02:08:50;19.42;;;9.48;;
8094;SDS011;4090;49.270;8.696;2024-03-02T02:11:33;16.77;;;8.93;;
8094;SDS011;4090;49.270;8.696;2024-03-02T02:14:15;19.20;;;9.48;;
8094;SDS011;4090;49.270;8.696;2024-03-02T02:16:57;15.80;;;9.43;;
8094;SDS011;4090;49.270;8.696;2024-03-02T02:19:40;16.00;;;9.82;;
8094;SDS011;4090;49.270;8.696;2024-03-02T02:22:23;16.25;;;8.82;;
8094;SDS011;4090;49.270;8.696;2024-03-02T02:25:05;15.13;;;8.52;;
8094;SDS011;4090;49.270;8.696;2024-03-02T02:27:47;17.13;;;9.02;;
8094;SDS011;4090;49.270;8.696;2024-03-02T02:30:30;17.48;;;9.55;;
8094;SDS011;4090;49.270;8.696;2024-03-02T02:33:13;19.63;;;9.30;;
8094;SDS011;4090;49.270;8.696;2024-03-02T02:35:55;17.42;;;9.88;;
8094;SDS011;4090;49.270;8.696;2024-03-02T02:38:39;16.70;;;9.23;;
8094;SDS011;4090;49.270;8.696;2024-03-02T02:41:25;16.70;;;9.98;;
8094;SDS011;4090;49.270;8.696;2024-03-02T02:44:06;15.65;;;9.02;;
8094;SDS011;4090;49.270;8.696;2024-03-02T02:46:48;18.90;;;9.82;;
8094;SDS011;4090;49.270;8.696;2024-03-02T02:49:30;16.38;;;8.88;;
8094;SDS011;4090;49.270;8.696;2024-03-02T02:52:12;15.35;;;8.82;;
8094;SDS011;4090;49.270;8.696;2024-03-02T02:54:55;20.58;;;10.07;;
8094;SDS011;4090;49.270;8.696;2024-03-02T02:57:38;14.45;;;9.15;;
8094;SDS011;4090;49.270;8.696;2024-03-02T03:00:22;17.73;;;9.05;;
8094;SDS011;4090;49.270;8.696;2024-03-02T03:03:04;18.13;;;9.00;;
8094;SDS011;4090;49.270;8.696;2024-03-02T03:05:46;16.88;;;9.05;;
8094;SDS011;4090;49.270;8.696;2024-03-02T03:08:27;17.70;;;8.82;;
8094;SDS011;4090;49.270;8.696;2024-03-02T03:11:11;17.20;;;9.32;;
8094;SDS011;4090;49.270;8.696;2024-03-02T03:13:53;16.00;;;9.23;;
8094;SDS011;4090;49.270;8.696;2024-03-02T03:16:35;16.85;;;8.80;;
8094;SDS011;4090;49.270;8.696;2024-03-02T03:19:17;19.63;;;10.07;;
8094;SDS011;4090;49.270;8.696;2024-03-02T03:21:59;17.73;;;9.80;;
8094;SDS011;4090;49.270;8.696;2024-03-02T03:24:41;14.70;;;8.85;;
8094;SDS011;4090;49.270;8.696;2024-03-02T03:27:24;18.33;;;8.98;;
8094;SDS011;4090;49.270;8.696;2024-03-02T03:30:07;18.55;;;9.48;;
8094;SDS011;4090;49.270;8.696;2024-03-02T03:32:49;16.90;;;9.10;;
8094;SDS011;4090;49.270;8.696;2024-03-02T03:35:30;17.30;;;9.82;;
8094;SDS011;4090;49.270;8.696;2024-03-02T03:38:12;17.20;;;8.60;;
8094;SDS011;4090;49.270;8.696;2024-03-02T03:40:54;19.65;;;9.50;;
8094;SDS011;4090;49.270;8.696;2024-03-02T03:43:37;18.88;;;9.20;;
8094;SDS011;4090;49.270;8.696;2024-03-02T03:46:19;16.85;;;8.68;;
8094;SDS011;4090;49.270;8.696;2024-03-02T03:49:01;20.45;;;10.30;;
8094;SDS011;4090;49.270;8.696;2024-03-02T03:51:44;18.33;;;9.40;;
8094;SDS011;4090;49.270;8.696;2024-03-02T03:54:25;19.13;;;9.77;;
8094;SDS011;4090;49.270;8.696;2024-03-02T03:57:07;17.50;;;8.93;;
8094;SDS011;4090;49.270;8.696;2024-03-02T03:59:50;18.10;;;9.52;;
8094;SDS011;4090;49.270;8.696;2024-03-02T04:02:32;16.75;;;9.02;;
8094;SDS011;4090;49.270;8.696;2024-03-02T04:05:15;20.25;;;9.63;;
8094;SDS011;4090;49.270;8.696;2024-03-02T04:07:57;18.20;;;9.50;;
8094;SDS011;4090;49.270;8.696;2024-03-02T04:10:40;18.33;;;9.85;;
8094;SDS011;4090;49.270;8.696;2024-03-02T04:13:22;21.10;;;10.18;;
8094;SDS011;4090;49.270;8.696;2024-03-02T04:16:05;22.10;;;9.98;;
8094;SDS011;4090;49.270;8.696;2024-03-02T04:18:47;18.70;;;9.38;;
8094;SDS011;4090;49.270;8.696;2024-03-02T04:21:29;22.48;;;10.40;;
8094;SDS011;4090;49.270;8.696;2024-03-02T04:24:11;21.48;;;10.50;;
8094;SDS011;4090;49.270;8.696;2024-03-02T04:26:53;18.55;;;9.20;;
8094;SDS011;4090;49.270;8.696;2024-03-02T04:29:35;21.85;;;10.10;;
8094;SDS011;4090;49.270;8.696;2024-03-02T04:32:18;21.05;;;10.32;;
8094;SDS011;4090;49.270;8.696;2024-03-02T04:35:00;19.02;;;10.30;;
8094;SDS011;4090;49.270;8.696;2024-03-02T04:37:42;20.65;;;9.38;;
8094;SDS011;4090;49.270;8.696;2024-03-02T04:40:24;20.08;;;10.25;;
8094;SDS011;4090;49.270;8.696;2024-03-02T04:43:06;16.92;;;9.90;;
8094;SDS011;4090;49.270;8.696;2024-03-02T04:45:49;19.10;;;9.55;;
8094;SDS011;4090;49.270;8.696;2024-03-02T04:48:32;20.85;;;10.30;;
8094;SDS011;4090;49.270;8.696;2024-03-02T04:51:14;20.05;;;9.98;;
8094;SDS011;4090;49.270;8.696;2024-03-02T04:53:56;20.00;;;10.32;;
8094;SDS011;4090;49.270;8.696;2024-03-02T04:56:38;18.95;;;10.60;;
8094;SDS011;4090;49.270;8.696;2024-03-02T04:59:24;18.75;;;10.00;;
8094;SDS011;4090;49.270;8.696;2024-03-02T05:02:06;20.02;;;10.25;;
8094;SDS011;4090;49.270;8.696;2024-03-02T05:04:49;17.27;;;9.90;;
8094;SDS011;4090;49.270;8.696;2024-03-02T05:07:31;21.70;;;11.10;;
8094;SDS011;4090;49.270;8.696;2024-03-02T05:10:13;19.30;;;10.52;;
8094;SDS011;4090;49.270;8.696;2024-03-02T05:12:55;21.55;;;9.75;;
8094;SDS011;4090;49.270;8.696;2024-03-02T05:15:39;19.58;;;9.77;;
8094;SDS011;4090;49.270;8.696;2024-03-02T05:18:21;19.25;;;9.82;;
8094;SDS011;4090;49.270;8.696;2024-03-02T05:21:05;17.65;;;9.40;;
8094;SDS011;4090;49.270;8.696;2024-03-02T05:23:47;19.58;;;9.82;;
8094;SDS011;4090;49.270;8.696;2024-03-02T05:26:29;18.63;;;8.90;;
8094;SDS011;4090;49.270;8.696;2024-03-02T05:29:11;18.63;;;9.55;;
8094;SDS011;4090;49.270;8.696;2024-03-02T05:31:52;18.92;;;9.90;;
8094;SDS011;4090;49.270;8.696;2024-03-02T05:34:34;19.10;;;10.18;;
8094;SDS011;4090;49.270;8.696;2024-03-02T05:37:17;19.08;;;10.02;;
8094;SDS011;4090;49.270;8.696;2024-03-02T05:40:00;20.40;;;10.55;;
8094;SDS011;4090;49.270;8.696;2024-03-02T05:42:42;19.80;;;10.18;;
8094;SDS011;4090;49.270;8.696;2024-03-02T05:45:24;21.08;;;10.27;;
8094;SDS011;4090;49.270;8.696;2024-03-02T05:48:06;20.25;;;10.55;;
8094;SDS011;4090;49.270;8.696;2024-03-02T05:50:49;20.58;;;9.95;;
8094;SDS011;4090;49.270;8.696;2024-03-02T05:53:32;19.13;;;10.07;;
8094;SDS011;4090;49.270;8.696;2024-03-02T05:56:14;18.55;;;9.93;;
8094;SDS011;4090;49.270;8.696;2024-03-02T05:58:56;21.60;;;10.45;;
8094;SDS011;4090;49.270;8.696;2024-03-02T06:01:48;20.90;;;10.75;;
8094;SDS011;4090;49.270;8.696;2024-03-02T06:04:31;21.27;;;10.07;;
8094;SDS011;4090;49.270;8.696;2024-03-02T06:07:13;20.50;;;10.77;;
8094;SDS011;4090;49.270;8.696;2024-03-02T06:09:57;22.58;;;10.43;;
8094;SDS011;4090;49.270;8.696;2024-03-02T06:12:38;17.92;;;9.80;;
8094;SDS011;4090;49.270;8.696;2024-03-02T06:15:20;19.05;;;9.57;;
8094;SDS011;4090;49.270;8.696;2024-03-02T06:18:03;22.42;;;9.98;;
8094;SDS011;4090;49.270;8.696;2024-03-02T06:20:46;23.23;;;11.35;;
8094;SDS011;4090;49.270;8.696;2024-03-02T06:23:29;20.73;;;9.90;;
8094;SDS011;4090;49.270;8.696;2024-03-02T06:26:12;20.73;;;9.73;;
8094;SDS011;4090;49.270;8.696;2024-03-02T06:28:54;20.52;;;10.35;;
8094;SDS011;4090;49.270;8.696;2024-03-02T06:31:36;18.40;;;10.05;;
8094;SDS011;4090;49.270;8.696;2024-03-02T06:34:18;18.35;;;9.68;;
8094;SDS011;4090;49.270;8.696;2024-03-02T06:37:00;21.83;;;10.57;;
8094;SDS011;4090;49.270;8.696;2024-03-02T06:39:43;18.08;;;10.02;;
8094;SDS011;4090;49.270;8.696;2024-03-02T06:42:26;19.88;;;10.88;;
8094;SDS011;4090;49.270;8.696;2024-03-02T06:45:14;19.45;;;10.27;;
8094;SDS011;4090;49.270;8.696;2024-03-02T06:47:56;18.92;;;10.02;;
8094;SDS011;4090;49.270;8.696;2024-03-02T06:50:38;22.20;;;9.73;;
8094;SDS011;4090;49.270;8.696;2024-03-02T06:53:20;19.42;;;9.77;;
8094;SDS011;4090;49.270;8.696;2024-03-02T06:56:03;17.17;;;8.88;;
8094;SDS011;4090;49.270;8.696;2024-03-02T06:58:46;18.45;;;9.77;;
8094;SDS011;4090;49.270;8.696;2024-03-02T07:01:28;19.40;;;10.20;;
8094;SDS011;4090;49.270;8.696;2024-03-02T07:04:10;18.00;;;9.05;;
8094;SDS011;4090;49.270;8.696;2024-03-02T07:06:52;17.98;;;9.10;;
8094;SDS011;4090;49.270;8.696;2024-03-02T07:09:35;18.33;;;9.88;;
8094;SDS011;4090;49.270;8.696;2024-03-02T07:12:16;17.73;;;9.65;;
8094;SDS011;4090;49.270;8.696;2024-03-02T07:15:00;21.20;;;9.40;;
8094;SDS011;4090;49.270;8.696;2024-03-02T07:18:10;19.45;;;9.85;;
8094;SDS011;4090;49.270;8.696;2024-03-02T07:20:51;19.02;;;9.57;;
8094;SDS011;4090;49.270;8.696;2024-03-02T07:23:33;20.20;;;9.63;;
8094;SDS011;4090;49.270;8.696;2024-03-02T07:26:15;18.10;;;9.75;;
8094;SDS011;4090;49.270;8.696;2024-03-02T07:28:58;20.33;;;9.82;;
8094;SDS011;4090;49.270;8.696;2024-03-02T07:31:41;20.05;;;9.65;;
8094;SDS011;4090;49.270;8.696;2024-03-02T07:34:23;18.17;;;8.95;;
8094;SDS011;4090;49.270;8.696;2024-03-02T07:37:05;21.73;;;10.73;;
8094;SDS011;4090;49.270;8.696;2024-03-02T07:39:47;24.15;;;10.63;;
8094;SDS011;4090;49.270;8.696;2024-03-02T07:42:29;18.60;;;9.45;;
8094;SDS011;4090;49.270;8.696;2024-03-02T07:45:11;20.02;;;10.00;;
8094;SDS011;4090;49.270;8.696;2024-03-02T07:47:54;17.63;;;9.43;;
8094;SDS011;4090;49.270;8.696;2024-03-02T07:50:36;19.95;;;9.18;;
8094;SDS011;4090;49.270;8.696;2024-03-02T07:53:19;20.33;;;9.20;;
8094;SDS011;4090;49.270;8.696;2024-03-02T07:56:00;20.20;;;9.93;;
8094;SDS011;4090;49.270;8.696;2024-03-02T07:58:43;21.05;;;9.77;;
8094;SDS011;4090;49.270;8.696;2024-03-02T08:01:26;19.98;;;9.23;;
8094;SDS011;4090;49.270;8.696;2024-03-02T08:04:09;21.45;;;10.05;;
8094;SDS011;4090;49.270;8.696;2024-03-02T08:06:51;19.58;;;9.27;;
8094;SDS011;4090;49.270;8.696;2024-03-02T08:09:33;19.88;;;10.18;;
8094;SDS011;4090;49.270;8.696;2024-03-02T08:12:14;20.52;;;10.00;;
8094;SDS011;4090;49.270;8.696;2024-03-02T08:14:56;19.80;;;10.43;;
8094;SDS011;4090;49.270;8.696;2024-03-02T08:17:38;18.10;;;10.07;;
8094;SDS011;4090;49.270;8.696;2024-03-02T08:20:26;19.33;;;9.63;;
8094;SDS011;4090;49.270;8.696;2024-03-02T08:23:08;21.27;;;10.10;;
8094;SDS011;4090;49.270;8.696;2024-03-02T08:25:50;19.35;;;9.60;;
8094;SDS011;4090;49.270;8.696;2024-03-02T08:28:31;19.75;;;9.63;;
8094;SDS011;4090;49.270;8.696;2024-03-02T08:31:13;21.67;;;9.75;;
8094;SDS011;4090;49.270;8.696;2024-03-02T08:33:55;20.48;;;10.35;;
8094;SDS011;4090;49.270;8.696;2024-03-02T08:36:40;17.95;;;9.25;;
8094;SDS011;4090;49.270;8.696;2024-03-02T08:39:22;20.45;;;10.15;;
8094;SDS011;4090;49.270;8.696;2024-03-02T08:42:04;21.38;;;10.25;;
8094;SDS011;4090;49.270;8.696;2024-03-02T08:44:46;22.63;;;10.55;;
8094;SDS011;4090;49.270;8.696;2024-03-02T08:47:28;23.70;;;10.80;;
8094;SDS011;4090;49.270;8.696;2024-03-02T08:50:10;21.95;;;9.52;;
8094;SDS011;4090;49.270;8.696;2024-03-02T08:52:53;21.25;;;9.80;;
8094;SDS011;4090;49.270;8.696;2024-03-02T08:55:35;21.52;;;10.23;;
8094;SDS011;4090;49.270;8.696;2024-03-02T08:58:17;19.95;;;10.25;;
8094;SDS011;4090;49.270;8.696;2024-03-02T09:01:00;21.33;;;10.60;;
8094;SDS011;4090;49.270;8.696;2024-03-02T09:03:43;20.65;;;9.75;;
8094;SDS011;4090;49.270;8.696;2024-03-02T09:06:25;20.58;;;9.20;;
8094;SDS011;4090;49.270;8.696;2024-03-02T09:09:08;20.23;;;9.95;;
8094;SDS011;4090;49.270;8.696;2024-03-02T09:11:50;17.70;;;9.20;;
8094;SDS011;4090;49.270;8.696;2024-03-02T09:14:35;20.02;;;9.60;;
8094;SDS011;4090;49.270;8.696;2024-03-02T09:17:18;21.90;;;10.18;;
8094;SDS011;4090;49.270;8.696;2024-03-02T09:19:59;20.70;;;10.77;;
8094;SDS011;4090;49.270;8.696;2024-03-02T09:22:41;19.20;;;9.23;;
8094;SDS011;4090;49.270;8.696;2024-03-02T09:25:24;16.55;;;9.52;;
8094;SDS011;4090;49.270;8.696;2024-03-02T09:28:06;18.20;;;9.32;;
8094;SDS011;4090;49.270;8.696;2024-03-02T09:30:48;16.98;;;9.57;;
8094;SDS011;4090;49.270;8.696;2024-03-02T09:33:30;20.80;;;9.95;;
8094;SDS011;4090;49.270;8.696;2024-03-02T09:36:18;18.05;;;9.68;;
8094;SDS011;4090;49.270;8.696;2024-03-02T09:39:00;24.75;;;9.93;;
8094;SDS011;4090;49.270;8.696;2024-03-02T09:41:45;19.55;;;9.02;;
8094;SDS011;4090;49.270;8.696;2024-03-02T09:44:28;20.38;;;10.00;;
8094;SDS011;4090;49.270;8.696;2024-03-02T09:47:10;21.52;;;10.25;;
8094;SDS011;4090;49.270;8.696;2024-03-02T09:49:52;17.80;;;9.38;;
8094;SDS011;4090;49.270;8.696;2024-03-02T09:52:35;18.98;;;8.95;;
8094;SDS011;4090;49.270;8.696;2024-03-02T09:55:18;21.33;;;9.70;;
8094;SDS011;4090;49.270;8.696;2024-03-02T09:58:02;17.45;;;9.05;;
8094;SDS011;4090;49.270;8.696;2024-03-02T10:00:44;17.52;;;8.82;;
8094;SDS011;4090;49.270;8.696;2024-03-02T10:03:26;16.70;;;8.80;;
8094;SDS011;4090;49.270;8.696;2024-03-02T10:06:18;16.90;;;8.68;;
8094;SDS011;4090;49.270;8.696;2024-03-02T10:09:00;17.10;;;9.35;;
8094;SDS011;4090;49.270;8.696;2024-03-02T10:11:42;18.60;;;9.07;;
8094;SDS011;4090;49.270;8.696;2024-03-02T10:14:25;19.55;;;9.05;;
8094;SDS011;4090;49.270;8.696;2024-03-02T10:17:07;14.77;;;8.07;;
8094;SDS011;4090;49.270;8.696;2024-03-02T10:19:50;16.60;;;8.93;;
8094;SDS011;4090;49.270;8.696;2024-03-02T10:22:32;14.73;;;8.05;;
8094;SDS011;4090;49.270;8.696;2024-03-02T10:25:27;14.10;;;7.43;;
8094;SDS011;4090;49.270;8.696;2024-03-02T10:28:13;11.93;;;7.30;;
8094;SDS011;4090;49.270;8.696;2024-03-02T10:30:58;14.43;;;8.02;;
8094;SDS011;4090;49.270;8.696;2024-03-02T10:33:39;14.52;;;6.93;;
8094;SDS011;4090;49.270;8.696;2024-03-02T10:36:21;10.40;;;6.07;;
8094;SDS011;4090;49.270;8.696;2024-03-02T10:39:06;11.57;;;5.70;;
8094;SDS011;4090;49.270;8.696;2024-03-02T10:41:49;9.15;;;4.93;;
8094;SDS011;4090;49.270;8.696;2024-03-02T10:44:33;9.80;;;5.22;;
8094;SDS011;4090;49.270;8.696;2024-03-02T10:47:16;8.60;;;5.22;;
8094;SDS011;4090;49.270;8.696;2024-03-02T10:50:01;12.52;;;5.97;;
8094;SDS011;4090;49.270;8.696;2024-03-02T10:52:48;9.98;;;5.57;;
8094;SDS011;4090;49.270;8.696;2024-03-02T10:55:30;8.90;;;5.53;;
8094;SDS011;4090;49.270;8.696;2024-03-02T10:58:12;9.32;;;5.05;;
8094;SDS011;4090;49.270;8.696;2024-03-02T11:00:55;8.02;;;4.68;;
8094;SDS011;4090;49.270;8.696;2024-03-02T11:03:39;9.07;;;5.53;;
8094;SDS011;4090;49.270;8.696;2024-03-02T11:06:22;9.82;;;5.65;;
8094;SDS011;4090;49.270;8.696;2024-03-02T11:09:07;8.10;;;4.82;;
8094;SDS011;4090;49.270;8.696;2024-03-02T11:11:53;6.65;;;4.25;;
8094;SDS011;4090;49.270;8.696;2024-03-02T11:14:41;6.97;;;4.53;;
8094;SDS011;4090;49.270;8.696;2024-03-02T11:17:24;7.82;;;4.40;;
8094;SDS011;4090;49.270;8.696;2024-03-02T11:20:08;6.75;;;4.30;;
8094;SDS011;4090;49.270;8.696;2024-03-02T11:22:51;8.38;;;4.63;;
8094;SDS011;4090;49.270;8.696;2024-03-02T11:25:33;8.07;;;4.72;;
8094;SDS011;4090;49.270;8.696;2024-03-02T11:28:15;7.50;;;4.20;;
8094;SDS011;4090;49.270;8.696;2024-03-02T11:31:15;7.60;;;4.18;;
8094;SDS011;4090;49.270;8.696;2024-03-02T11:33:57;5.70;;;3.88;;
8094;SDS011;4090;49.270;8.696;2024-03-02T11:37:00;6.07;;;3.75;;
8094;SDS011;4090;49.270;8.696;2024-03-02T11:39:43;5.88;;;4.05;;
8094;SDS011;4090;49.270;8.696;2024-03-02T11:42:26;5.80;;;3.83;;
8094;SDS011;4090;49.270;8.696;2024-03-02T11:45:08;5.10;;;3.47;;
8094;SDS011;4090;49.270;8.696;2024-03-02T11:47:50;6.47;;;3.88;;
8094;SDS011;4090;49.270;8.696;2024-03-02T11:50:34;5.68;;;3.85;;
8094;SDS011;4090;49.270;8.696;2024-03-02T11:53:20;5.65;;;3.60;;
8094;SDS011;4090;49.270;8.696;2024-03-02T11:56:02;6.47;;;3.80;;
8094;SDS011;4090;49.270;8.696;2024-03-02T11:58:45;7.00;;;3.35;;
8094;SDS011;4090;49.270;8.696;2024-03-02T12:01:27;6.15;;;3.85;;
8094;SDS011;4090;49.270;8.696;2024-03-02T12:04:10;5.72;;;3.70;;
8094;SDS011;4090;49.270;8.696;2024-03-02T12:06:56;5.82;;;3.80;;
8094;SDS011;4090;49.270;8.696;2024-03-02T12:09:41;4.30;;;3.30;;
8094;SDS011;4090;49.270;8.696;2024-03-02T12:12:23;3.95;;;2.90;;
8094;SDS011;4090;49.270;8.696;2024-03-02T12:15:05;4.78;;;3.13;;
8094;SDS011;4090;49.270;8.696;2024-03-02T12:17:47;6.53;;;3.47;;
8094;SDS011;4090;49.270;8.696;2024-03-02T12:20:30;4.55;;;3.10;;
8094;SDS011;4090;49.270;8.696;2024-03-02T12:23:12;5.93;;;3.38;;
8094;SDS011;4090;49.270;8.696;2024-03-02T12:25:55;4.65;;;3.13;;
8094;SDS011;4090;49.270;8.696;2024-03-02T12:28:37;5.25;;;3.25;;
8094;SDS011;4090;49.270;8.696;2024-03-02T12:31:19;3.97;;;2.90;;
8094;SDS011;4090;49.270;8.696;2024-03-02T12:34:01;4.70;;;3.00;;
8094;SDS011;4090;49.270;8.696;2024-03-02T12:36:45;4.50;;;3.30;;
8094;SDS011;4090;49.270;8.696;2024-03-02T12:39:29;5.50;;;3.05;;
8094;SDS011;4090;49.270;8.696;2024-03-02T12:42:14;7.88;;;3.33;;
8094;SDS011;4090;49.270;8.696;2024-03-02T12:44:56;5.10;;;3.20;;
8094;SDS011;4090;49.270;8.696;2024-03-02T12:47:39;4.88;;;3.30;;
8094;SDS011;4090;49.270;8.696;2024-03-02T12:50:21;4.32;;;3.13;;
8094;SDS011;4090;49.270;8.696;2024-03-02T12:53:03;3.50;;;2.53;;
8094;SDS011;4090;49.270;8.696;2024-03-02T12:55:45;3.13;;;2.50;;
8094;SDS011;4090;49.270;8.696;2024-03-02T12:58:28;5.07;;;2.88;;
8094;SDS011;4090;49.270;8.696;2024-03-02T13:01:11;3.60;;;2.60;;
8094;SDS011;4090;49.270;8.696;2024-03-02T13:03:59;4.13;;;2.50;;
8094;SDS011;4090;49.270;8.696;2024-03-02T13:06:40;4.03;;;2.55;;
8094;SDS011;4090;49.270;8.696;2024-03-02T13:09:23;6.13;;;2.70;;
8094;SDS011;4090;49.270;8.696;2024-03-02T13:12:05;3.03;;;2.40;;
8094;SDS011;4090;49.270;8.696;2024-03-02T13:14:49;2.45;;;1.95;;
8094;SDS011;4090;49.270;8.696;2024-03-02T13:17:34;3.53;;;2.47;;
8094;SDS011;4090;49.270;8.696;2024-03-02T13:20:16;4.38;;;2.42;;
8094;SDS011;4090;49.270;8.696;2024-03-02T13:22:59;2.30;;;1.92;;
8094;SDS011;4090;49.270;8.696;2024-03-02T13:25:41;3.00;;;2.30;;
8094;SDS011;4090;49.270;8.696;2024-03-02T13:28:23;3.00;;;2.20;;
8094;SDS011;4090;49.270;8.696;2024-03-02T13:31:06;4.38;;;2.22;;
8094;SDS011;4090;49.270;8.696;2024-03-02T13:33:48;2.72;;;2.30;;
8094;SDS011;4090;49.270;8.696;2024-03-02T13:36:30;2.78;;;1.90;;
8094;SDS011;4090;49.270;8.696;2024-03-02T13:39:12;2.05;;;1.77;;
8094;SDS011;4090;49.270;8.696;2024-03-02T13:42:02;2.35;;;2.15;;
8094;SDS011;4090;49.270;8.696;2024-03-02T13:44:48;1.77;;;1.67;;
8094;SDS011;4090;49.270;8.696;2024-03-02T13:47:33;2.75;;;1.60;;
8094;SDS011;4090;49.270;8.696;2024-03-02T13:50:14;2.22;;;1.70;;
8094;SDS011;4090;49.270;8.696;2024-03-02T13:52:57;2.50;;;1.70;;
8094;SDS011;4090;49.270;8.696;2024-03-02T13:55:39;2.70;;;1.60;;
8094;SDS011;4090;49.270;8.696;2024-03-02T13:58:22;13.88;;;2.63;;
8094;SDS011;4090;49.270;8.696;2024-03-02T14:01:04;1.77;;;1.40;;
8094;SDS011;4090;49.270;8.696;2024-03-02T14:03:47;2.35;;;1.40;;
8094;SDS011;4090;49.270;8.696;2024-03-02T14:06:29;1.88;;;1.42;;
8094;SDS011;4090;49.270;8.696;2024-03-02T14:09:11;1.88;;;1.42;;
8094;SDS011;4090;49.270;8.696;2024-03-02T14:11:53;1.50;;;1.40;;
8094;SDS011;4090;49.270;8.696;2024-03-02T14:14:36;1.98;;;1.40;;
8094;SDS011;4090;49.270;8.696;2024-03-02T14:17:18;1.50;;;1.30;;
8094;SDS011;4090;49.270;8.696;2024-03-02T14:20:01;1.38;;;1.27;;
8094;SDS011;4090;49.270;8.696;2024-03-02T14:22:45;1.75;;;1.20;;
8094;SDS011;4090;49.270;8.696;2024-03-02T14:25:27;1.60;;;1.27;;
8094;SDS011;4090;49.270;8.696;2024-03-02T14:28:11;1.50;;;1.25;;
8094;SDS011;4090;49.270;8.696;2024-03-02T14:30:53;2.78;;;1.30;;
8094;SDS011;4090;49.270;8.696;2024-03-02T14:33:35;1.40;;;1.30;;
8094;SDS011;4090;49.270;8.696;2024-03-02T14:36:18;1.77;;;1.40;;
8094;SDS011;4090;49.270;8.696;2024-03-02T14:39:00;1.25;;;1.17;;
8094;SDS011;4090;49.270;8.696;2024-03-02T14:41:44;1.30;;;1.20;;
8094;SDS011;4090;49.270;8.696;2024-03-02T14:44:26;1.00;;;1.00;;
8094;SDS011;4090;49.270;8.696;2024-03-02T14:47:08;0.90;;;0.90;;
8094;SDS011;4090;49.270;8.696;2024-03-02T14:49:49;1.15;;;1.00;;
8094;SDS011;4090;49.270;8.696;2024-03-02T14:52:33;1.15;;;1.08;;
8094;SDS011;4090;49.270;8.696;2024-03-02T14:55:15;1.05;;;0.90;;
8094;SDS011;4090;49.270;8.696;2024-03-02T14:57:57;2.03;;;1.30;;
8094;SDS011;4090;49.270;8.696;2024-03-02T15:00:39;1.05;;;1.00;;
8094;SDS011;4090;49.270;8.696;2024-03-02T15:03:20;1.23;;;1.13;;
8094;SDS011;4090;49.270;8.696;2024-03-02T15:06:02;2.28;;;1.20;;
8094;SDS011;4090;49.270;8.696;2024-03-02T15:08:46;0.82;;;0.82;;
8094;SDS011;4090;49.270;8.696;2024-03-02T15:11:28;0.90;;;0.90;;
8094;SDS011;4090;49.270;8.696;2024-03-02T15:14:10;1.83;;;0.85;;
8094;SDS011;4090;49.270;8.696;2024-03-02T15:16:53;1.95;;;1.10;;
8094;SDS011;4090;49.270;8.696;2024-03-02T15:19:36;1.67;;;0.90;;
8094;SDS011;4090;49.270;8.696;2024-03-02T15:22:18;0.70;;;0.70;;
8094;SDS011;4090;49.270;8.696;2024-03-02T15:25:01;0.80;;;0.80;;
8094;SDS011;4090;49.270;8.696;2024-03-02T15:27:43;0.98;;;0.90;;
8094;SDS011;4090;49.270;8.696;2024-03-02T15:30:25;1.75;;;1.40;;
8094;SDS011;4090;49.270;8.696;2024-03-02T15:33:07;2.20;;;1.40;;
8094;SDS011;4090;49.270;8.696;2024-03-02T15:35:49;1.60;;;1.50;;
8094;SDS011;4090;49.270;8.696;2024-03-02T15:38:31;1.40;;;1.30;;
8094;SDS011;4090;49.270;8.696;2024-03-02T15:41:14;1.48;;;1.30;;
8094;SDS011;4090;49.270;8.696;2024-03-02T15:43:56;3.00;;;1.30;;
8094;SDS011;4090;49.270;8.696;2024-03-02T15:46:38;5.50;;;1.65;;
8094;SDS011;4090;49.270;8.696;2024-03-02T15:49:20;1.42;;;1.17;;
8094;SDS011;4090;49.270;8.696;2024-03-02T15:52:02;2.17;;;1.20;;
8094;SDS011;4090;49.270;8.696;2024-03-02T15:54:44;1.13;;;1.00;;
8094;SDS011;4090;49.270;8.696;2024-03-02T15:57:27;1.75;;;1.50;;
8094;SDS011;4090;49.270;8.696;2024-03-02T16:00:10;2.28;;;1.70;;
8094;SDS011;4090;49.270;8.696;2024-03-02T16:02:52;1.90;;;1.70;;
8094;SDS011;4090;49.270;8.696;2024-03-02T16:05:34;1.50;;;1.40;;
8094;SDS011;4090;49.270;8.696;2024-03-02T16:08:16;2.20;;;1.60;;
8094;SDS011;4090;49.270;8.696;2024-03-02T16:10:58;2.08;;;1.63;;
8094;SDS011;4090;49.270;8.696;2024-03-02T16:13:41;1.63;;;1.40;;
8094;SDS011;4090;49.270;8.696;2024-03-02T16:16:25;1.80;;;1.40;;
8094;SDS011;4090;49.270;8.696;2024-03-02T16:19:07;1.65;;;1.50;;
8094;SDS011;4090;49.270;8.696;2024-03-02T16:21:48;1.50;;;1.30;;
8094;SDS011;4090;49.270;8.696;2024-03-02T16:24:30;3.17;;;1.60;;
8094;SDS011;4090;49.270;8.696;2024-03-02T16:27:12;2.20;;;1.60;;
8094;SDS011;4090;49.270;8.696;2024-03-02T16:29:55;3.70;;;1.63;;
8094;SDS011;4090;49.270;8.696;2024-03-02T16:32:38;2.88;;;1.88;;
8094;SDS011;4090;49.270;8.696;2024-03-02T16:35:20;3.22;;;2.20;;
8094;SDS011;4090;49.270;8.696;2024-03-02T16:38:03;2.63;;;1.90;;
8094;SDS011;4090;49.270;8.696;2024-03-02T16:40:46;3.20;;;2.05;;